createdAt,value
2023-05-17T00:00:29.393Z,1.48
2023-05-17T00:02:56.234Z,1.75
2023-05-17T00:05:23.120Z,1.70
2023-05-17T00:07:50.048Z,2.40
2023-05-17T00:10:17.069Z,1.80
2023-05-17T00:12:43.800Z,1.55
2023-05-17T00:15:10.811Z,1.65
2023-05-17T00:17:38.192Z,2.08
2023-05-17T00:20:05.894Z,1.65
2023-05-17T00:22:32.685Z,1.70
2023-05-17T00:25:01.594Z,1.67
2023-05-17T00:27:28.313Z,1.80
2023-05-17T00:29:55.070Z,1.85
2023-05-17T00:32:21.841Z,1.30
2023-05-17T00:34:48.625Z,2.03
2023-05-17T00:37:15.379Z,1.60
2023-05-17T00:39:42.100Z,1.83
2023-05-17T00:42:09.304Z,1.70
2023-05-17T00:44:36.287Z,2.38
2023-05-17T00:47:03.148Z,2.20
2023-05-17T00:49:29.894Z,2.28
2023-05-17T00:51:56.818Z,2.35
2023-05-17T00:54:23.933Z,2.10
2023-05-17T00:56:50.747Z,2.60
2023-05-17T00:59:17.832Z,2.35
2023-05-17T01:01:44.771Z,2.80
2023-05-17T01:04:11.626Z,2.25
2023-05-17T01:06:38.477Z,2.42
2023-05-17T01:09:06.079Z,2.65
2023-05-17T01:11:56.875Z,1.90
2023-05-17T01:14:42.009Z,2.00
2023-05-17T01:17:36.154Z,1.85
2023-05-17T01:20:33.284Z,2.40
2023-05-17T01:23:18.969Z,1.73
2023-05-17T01:26:18.214Z,1.83
2023-05-17T01:28:49.589Z,1.83
2023-05-17T01:31:17.207Z,1.85
2023-05-17T01:33:44.254Z,1.85
2023-05-17T01:36:11.025Z,1.77
2023-05-17T01:38:37.692Z,1.73
2023-05-17T01:41:16.596Z,1.90
2023-05-17T01:46:31.942Z,1.77
2023-05-17T01:49:37.586Z,1.70
2023-05-17T01:52:24.260Z,1.60
2023-05-17T01:55:11.185Z,1.88
2023-05-17T01:57:39.317Z,1.95
2023-05-17T02:00:09.300Z,1.90
2023-05-17T02:02:36.669Z,1.58
2023-05-17T02:05:03.809Z,1.70
2023-05-17T02:07:31.001Z,2.13
2023-05-17T02:09:57.861Z,1.63
2023-05-17T02:12:25.435Z,1.90
2023-05-17T02:14:52.198Z,1.60
2023-05-17T02:17:19.009Z,1.48
2023-05-17T02:19:45.817Z,1.85
2023-05-17T02:22:12.532Z,1.70
2023-05-17T02:24:39.347Z,2.17
2023-05-17T02:27:08.973Z,1.90
2023-05-17T02:29:37.030Z,1.63
2023-05-17T02:32:03.968Z,1.80
2023-05-17T02:34:30.836Z,2.08
2023-05-17T02:36:57.576Z,1.95
2023-05-17T02:39:24.254Z,2.03
2023-05-17T02:41:51.013Z,1.55
2023-05-17T02:44:17.791Z,2.08
2023-05-17T02:46:44.558Z,1.58
2023-05-17T02:49:11.268Z,1.65
2023-05-17T02:51:38.018Z,1.77
2023-05-17T02:54:04.892Z,1.63
2023-05-17T02:56:31.656Z,1.85
2023-05-17T02:59:01.167Z,1.60
2023-05-17T03:01:28.298Z,2.00
2023-05-17T03:03:55.202Z,1.90
2023-05-17T03:06:22.152Z,1.55
2023-05-17T03:08:48.932Z,1.67
2023-05-17T03:11:15.739Z,1.58
2023-05-17T03:13:42.382Z,1.85
2023-05-17T03:16:09.489Z,2.00
2023-05-17T03:18:36.588Z,2.30
2023-05-17T03:21:03.421Z,2.30
2023-05-17T03:23:30.134Z,1.80
2023-05-17T03:25:56.908Z,1.88
2023-05-17T03:28:23.725Z,3.05
2023-05-17T03:30:50.701Z,2.20
2023-05-17T03:33:18.181Z,2.28
2023-05-17T03:35:46.816Z,2.65
2023-05-17T03:38:13.624Z,1.90
2023-05-17T03:40:41.433Z,2.20
2023-05-17T03:43:08.180Z,2.35
2023-05-17T03:45:34.996Z,2.20
2023-05-17T03:48:01.859Z,2.30
2023-05-17T03:50:28.860Z,2.33
2023-05-17T03:52:55.698Z,2.20
2023-05-17T03:55:22.611Z,2.38
2023-05-17T03:57:49.365Z,2.50
2023-05-17T04:00:21.278Z,2.33
2023-05-17T04:02:52.197Z,2.63
2023-05-17T04:05:19.750Z,2.72
2023-05-17T04:07:46.570Z,3.25
2023-05-17T04:10:13.364Z,2.90
2023-05-17T04:12:39.992Z,2.20
2023-05-17T04:15:07.415Z,2.65
2023-05-17T04:17:34.250Z,2.55
2023-05-17T04:20:01.002Z,2.40
2023-05-17T04:22:27.685Z,2.53
2023-05-17T04:24:54.400Z,3.05
2023-05-17T04:27:21.941Z,3.47
2023-05-17T04:29:48.707Z,3.83
2023-05-17T04:32:15.465Z,3.33
2023-05-17T04:34:43.273Z,3.55
2023-05-17T04:37:10.118Z,3.83
2023-05-17T04:39:36.876Z,4.03
2023-05-17T04:42:03.775Z,4.47
2023-05-17T04:44:30.643Z,5.13
2023-05-17T04:46:57.433Z,4.00
2023-05-17T04:49:25.183Z,4.05
2023-05-17T04:51:53.006Z,4.95
2023-05-17T04:54:28.400Z,4.60
2023-05-17T04:56:55.170Z,4.20
2023-05-17T04:59:21.897Z,4.47
2023-05-17T05:01:48.583Z,4.50
2023-05-17T05:04:15.541Z,4.45
2023-05-17T05:06:43.935Z,4.13
2023-05-17T05:09:10.706Z,3.88
2023-05-17T05:11:37.504Z,4.50
2023-05-17T05:14:04.324Z,4.03
2023-05-17T05:16:31.142Z,4.03
2023-05-17T05:18:58.271Z,3.42
2023-05-17T05:21:25.340Z,3.92
2023-05-17T05:23:52.148Z,6.57
2023-05-17T05:26:18.880Z,3.58
2023-05-17T05:28:48.453Z,3.20
2023-05-17T05:31:15.258Z,3.58
2023-05-17T05:33:43.378Z,3.15
2023-05-17T05:36:10.351Z,2.63
2023-05-17T05:38:37.355Z,3.28
2023-05-17T05:41:04.211Z,3.50
2023-05-17T05:43:31.451Z,3.17
2023-05-17T05:45:58.474Z,3.08
2023-05-17T05:48:25.497Z,3.05
2023-05-17T05:50:52.556Z,3.40
2023-05-17T05:53:19.997Z,3.08
2023-05-17T05:55:47.021Z,2.67
2023-05-17T05:58:13.820Z,3.60
2023-05-17T06:00:40.711Z,2.63
2023-05-17T06:03:08.834Z,2.72
2023-05-17T06:05:37.048Z,2.78
2023-05-17T06:08:04.687Z,2.83
2023-05-17T06:10:32.090Z,2.45
2023-05-17T06:12:59.495Z,2.33
2023-05-17T06:15:27.369Z,2.30
2023-05-17T06:17:54.398Z,2.67
2023-05-17T06:20:21.618Z,2.70
2023-05-17T06:22:48.509Z,2.53
2023-05-17T06:25:15.665Z,3.38
2023-05-17T06:27:43.063Z,2.78
2023-05-17T06:30:10.731Z,2.20
2023-05-17T06:32:37.662Z,2.40
2023-05-17T06:35:04.797Z,2.42
2023-05-17T06:37:32.314Z,2.35
2023-05-17T06:40:14.902Z,2.42
2023-05-17T06:42:43.174Z,2.17
2023-05-17T06:45:10.665Z,2.33
2023-05-17T06:47:37.774Z,2.47
2023-05-17T06:50:05.405Z,1.77
2023-05-17T06:52:32.533Z,2.33
2023-05-17T06:54:59.255Z,2.38
2023-05-17T06:57:26.124Z,2.83
2023-05-17T06:59:53.207Z,2.00
2023-05-17T07:02:20.400Z,2.40
2023-05-17T07:04:49.812Z,1.90
2023-05-17T07:07:18.002Z,1.83
2023-05-17T07:09:45.130Z,2.30
2023-05-17T07:12:12.179Z,2.63
2023-05-17T07:14:38.999Z,2.35
2023-05-17T07:17:06.509Z,1.90
2023-05-17T07:19:36.768Z,2.88
2023-05-17T07:22:05.306Z,1.70
2023-05-17T07:24:32.133Z,1.63
2023-05-17T07:26:58.988Z,1.80
2023-05-17T07:29:25.860Z,2.65
2023-05-17T07:31:52.695Z,2.13
2023-05-17T07:34:19.608Z,1.35
2023-05-17T07:36:46.473Z,2.00
2023-05-17T07:39:16.303Z,1.80
2023-05-17T07:41:43.848Z,1.60
2023-05-17T07:44:11.131Z,2.60
2023-05-17T07:46:38.188Z,2.00
2023-05-17T07:49:11.466Z,2.47
2023-05-17T07:51:39.516Z,2.42
2023-05-17T07:54:06.598Z,1.90
2023-05-17T07:56:35.443Z,2.03
2023-05-17T07:59:02.593Z,1.77
2023-05-17T08:01:29.496Z,1.65
2023-05-17T08:03:59.035Z,1.58
2023-05-17T08:06:26.675Z,1.80
2023-05-17T08:08:55.166Z,2.42
2023-05-17T08:11:21.988Z,1.98
2023-05-17T08:13:49.424Z,1.75
2023-05-17T08:16:16.229Z,1.95
2023-05-17T08:18:43.776Z,1.65
2023-05-17T08:21:11.452Z,1.40
2023-05-17T08:23:38.790Z,1.92
2023-05-17T08:26:05.685Z,1.65
2023-05-17T08:28:32.514Z,1.75
2023-05-17T08:30:59.375Z,1.90
2023-05-17T08:33:26.562Z,1.70
2023-05-17T08:35:55.384Z,1.48
2023-05-17T08:38:22.498Z,1.77
2023-05-17T08:40:56.717Z,1.80
2023-05-17T08:43:27.353Z,1.75
2023-05-17T08:45:57.655Z,1.95
2023-05-17T08:48:31.180Z,1.27
2023-05-17T08:51:00.057Z,1.92
2023-05-17T08:53:27.654Z,2.28
2023-05-17T08:55:59.191Z,1.60
2023-05-17T08:58:34.180Z,1.65
2023-05-17T09:01:09.806Z,1.85
2023-05-17T09:03:40.802Z,1.83
2023-05-17T09:06:10.022Z,1.88
2023-05-17T09:08:38.016Z,1.88
2023-05-17T09:11:05.104Z,1.95
2023-05-17T09:13:32.278Z,2.00
2023-05-17T09:15:59.065Z,1.80
2023-05-17T09:18:33.080Z,2.53
2023-05-17T09:21:07.163Z,1.67
2023-05-17T09:23:34.019Z,1.20
2023-05-17T09:26:10.746Z,1.40
2023-05-17T09:28:42.318Z,2.30
2023-05-17T09:31:10.003Z,1.98
2023-05-17T09:33:45.053Z,2.20
2023-05-17T09:36:23.084Z,1.73
2023-05-17T09:39:05.649Z,1.60
2023-05-17T09:41:34.105Z,1.63
2023-05-17T09:44:01.682Z,1.38
2023-05-17T09:46:49.113Z,1.30
2023-05-17T09:49:17.520Z,1.15
2023-05-17T09:51:47.655Z,1.60
2023-05-17T09:54:14.812Z,1.55
2023-05-17T09:56:41.989Z,1.60
2023-05-17T09:59:13.843Z,1.35
2023-05-17T10:01:42.155Z,1.38
2023-05-17T10:04:10.523Z,1.40
2023-05-17T10:09:14.181Z,1.52
2023-05-17T10:11:46.134Z,1.73
2023-05-17T10:14:28.768Z,1.50
2023-05-17T10:16:56.257Z,1.58
2023-05-17T10:19:27.345Z,1.33
2023-05-17T10:21:58.668Z,1.67
2023-05-17T10:24:31.648Z,1.75
2023-05-17T10:26:59.631Z,1.45
2023-05-17T10:29:26.742Z,1.80
2023-05-17T10:31:54.139Z,1.30
2023-05-17T10:34:21.200Z,1.42
2023-05-17T10:36:49.972Z,1.13
2023-05-17T10:39:17.076Z,1.77
2023-05-17T10:42:13.463Z,1.83
2023-05-17T10:44:42.069Z,1.55
2023-05-17T10:47:09.029Z,1.38
2023-05-17T10:49:39.390Z,1.98
2023-05-17T10:52:13.242Z,1.00
2023-05-17T10:54:43.158Z,1.38
2023-05-17T10:57:20.594Z,1.65
2023-05-17T10:59:58.757Z,1.30
2023-05-17T11:02:26.707Z,1.55
2023-05-17T11:04:55.946Z,1.50
2023-05-17T11:07:32.814Z,1.00
2023-05-17T11:10:14.368Z,1.40
2023-05-17T11:12:48.045Z,1.50
2023-05-17T11:15:16.305Z,1.23
2023-05-17T11:17:43.720Z,1.50
2023-05-17T11:20:17.423Z,1.13
2023-05-17T11:22:55.758Z,1.10
2023-05-17T11:25:32.152Z,0.90
2023-05-17T11:28:00.303Z,1.50
2023-05-17T11:30:32.100Z,1.35
2023-05-17T11:33:00.641Z,1.27
2023-05-17T11:35:32.266Z,1.60
2023-05-17T11:38:21.732Z,1.20
2023-05-17T11:40:53.742Z,1.27
2023-05-17T11:43:25.847Z,1.95
2023-05-17T11:45:57.245Z,2.03
2023-05-17T11:48:26.152Z,1.70
2023-05-17T11:50:55.315Z,1.80
2023-05-17T11:53:26.560Z,1.27
2023-05-17T11:55:55.790Z,1.40
2023-05-17T11:58:27.399Z,1.30
2023-05-17T12:00:58.565Z,1.33
2023-05-17T12:03:29.887Z,1.30
2023-05-17T12:06:08.459Z,1.70
2023-05-17T12:08:37.425Z,0.90
2023-05-17T12:11:06.061Z,1.30
2023-05-17T12:13:34.883Z,1.13
2023-05-17T12:16:09.092Z,1.05
2023-05-17T12:18:40.262Z,1.30
2023-05-17T12:21:09.427Z,1.08
2023-05-17T12:23:38.281Z,1.27
2023-05-17T12:26:17.731Z,1.42
2023-05-17T12:28:54.724Z,1.10
2023-05-17T12:31:32.795Z,1.35
2023-05-17T12:34:13.736Z,1.30
2023-05-17T12:36:43.673Z,1.40
2023-05-17T12:39:17.281Z,1.00
2023-05-17T12:41:46.475Z,1.30
2023-05-17T12:44:16.685Z,1.13
2023-05-17T12:52:45.351Z,1.60
2023-05-17T12:55:16.955Z,1.45
2023-05-17T12:57:54.195Z,1.30
2023-05-17T13:00:22.005Z,1.42
2023-05-17T13:02:54.463Z,1.35
2023-05-17T13:05:23.234Z,2.28
2023-05-17T13:08:21.310Z,1.30
2023-05-17T13:10:59.647Z,1.45
2023-05-17T13:13:34.564Z,1.85
2023-05-17T13:16:01.509Z,1.30
2023-05-17T13:18:32.360Z,1.70
2023-05-17T13:26:38.086Z,1.63
2023-05-17T13:29:07.515Z,1.55
2023-05-17T13:31:34.476Z,1.23
2023-05-17T13:34:01.440Z,1.20
2023-05-17T13:36:35.063Z,1.38
2023-05-17T13:39:12.406Z,1.15
2023-05-17T13:41:49.655Z,1.67
2023-05-17T13:44:29.719Z,1.70
2023-05-17T13:47:13.650Z,1.55
2023-05-17T13:52:31.427Z,1.13
2023-05-17T13:57:42.400Z,1.30
2023-05-17T14:00:14.092Z,1.20
2023-05-17T14:02:44.925Z,1.58
2023-05-17T14:05:12.430Z,2.25
2023-05-17T14:07:50.383Z,1.40
2023-05-17T14:10:25.974Z,1.45
2023-05-17T14:12:58.590Z,1.65
2023-05-17T14:15:27.396Z,1.75
2023-05-17T14:17:57.329Z,1.33
2023-05-17T14:20:51.964Z,1.70
2023-05-17T14:23:18.837Z,1.63
2023-05-17T14:25:49.116Z,1.90
2023-05-17T14:28:46.066Z,2.22
2023-05-17T14:31:12.976Z,1.58
2023-05-17T14:33:39.822Z,1.35
2023-05-17T14:36:06.957Z,1.42
2023-05-17T14:38:33.732Z,1.85
2023-05-17T14:41:04.857Z,1.60
2023-05-17T14:44:14.217Z,1.65
2023-05-17T14:55:42.452Z,1.60
2023-05-17T14:58:15.684Z,1.40
2023-05-17T15:00:47.695Z,1.63
2023-05-17T15:03:16.512Z,1.95
2023-05-17T15:05:46.190Z,2.75
2023-05-17T15:08:14.238Z,1.65
2023-05-17T15:10:42.300Z,1.60
2023-05-17T15:13:08.968Z,1.58
2023-05-17T15:15:36.750Z,1.95
2023-05-17T15:18:03.689Z,1.88
2023-05-17T15:20:30.689Z,1.98
2023-05-17T15:22:57.479Z,1.95
2023-05-17T15:25:24.287Z,1.83
2023-05-17T15:27:51.152Z,1.70
2023-05-17T15:30:18.357Z,1.95
2023-05-17T15:32:45.293Z,1.75
2023-05-17T15:35:12.155Z,1.70
2023-05-17T15:37:39.035Z,1.75
2023-05-17T15:40:16.870Z,1.80
2023-05-17T15:42:43.636Z,1.90
2023-05-17T15:45:11.102Z,1.75
2023-05-17T15:47:43.009Z,1.50
2023-05-17T15:50:11.106Z,1.52
2023-05-17T15:52:38.036Z,1.60
2023-05-17T15:55:05.393Z,1.80
2023-05-17T15:57:32.604Z,1.80
2023-05-17T15:59:59.456Z,1.70
2023-05-17T16:02:28.492Z,1.70
2023-05-17T16:04:55.190Z,1.92
2023-05-17T16:07:21.999Z,1.80
2023-05-17T16:09:48.769Z,1.60
2023-05-17T16:12:15.520Z,1.70
2023-05-17T16:14:42.359Z,1.70
2023-05-17T16:17:09.114Z,2.00
2023-05-17T16:19:35.963Z,1.80
2023-05-17T16:22:02.728Z,1.67
2023-05-17T16:24:29.469Z,2.10
2023-05-17T16:26:56.701Z,1.90
2023-05-17T16:29:24.822Z,2.67
2023-05-17T16:31:52.966Z,2.22
2023-05-17T16:34:19.886Z,2.13
2023-05-17T16:36:48.211Z,2.15
2023-05-17T16:39:14.894Z,1.65
2023-05-17T16:41:41.678Z,2.30
2023-05-17T16:44:11.569Z,2.40
2023-05-17T16:46:48.794Z,2.33
2023-05-17T16:49:26.083Z,2.25
2023-05-17T16:51:53.126Z,1.90
2023-05-17T16:54:19.991Z,1.70
2023-05-17T16:56:46.705Z,1.80
2023-05-17T16:59:13.474Z,1.50
2023-05-17T17:01:40.241Z,1.85
2023-05-17T17:04:07.534Z,3.00
2023-05-17T17:06:34.619Z,2.15
2023-05-17T17:09:05.835Z,2.65
2023-05-17T17:11:34.584Z,1.48
2023-05-17T17:14:01.291Z,1.77
2023-05-17T17:16:28.676Z,2.00
2023-05-17T17:18:55.408Z,1.77
2023-05-17T17:21:22.146Z,1.70
2023-05-17T17:23:48.955Z,1.83
2023-05-17T17:26:16.246Z,1.85
2023-05-17T17:28:43.695Z,1.65
2023-05-17T17:31:10.650Z,1.77
2023-05-17T17:33:37.468Z,1.95
2023-05-17T17:36:04.675Z,1.80
2023-05-17T17:38:31.457Z,2.20
2023-05-17T17:40:58.200Z,2.58
2023-05-17T17:43:24.980Z,1.73
2023-05-17T17:45:51.761Z,2.10
2023-05-17T17:48:18.604Z,1.80
2023-05-17T17:50:45.319Z,1.95
2023-05-17T17:53:14.026Z,1.95
2023-05-17T17:55:40.899Z,1.60
2023-05-17T17:58:07.798Z,3.22
2023-05-17T18:00:34.749Z,1.70
2023-05-17T18:03:01.988Z,2.35
2023-05-17T18:05:28.874Z,2.10
2023-05-17T18:07:55.673Z,2.30
2023-05-17T18:10:22.759Z,1.67
2023-05-17T18:12:51.712Z,1.65
2023-05-17T18:15:18.754Z,1.83
2023-05-17T18:17:46.205Z,1.60
2023-05-17T18:20:13.024Z,1.60
2023-05-17T18:22:39.753Z,1.67
2023-05-17T18:25:06.778Z,2.00
2023-05-17T18:27:33.538Z,1.50
2023-05-17T18:30:00.747Z,2.35
2023-05-17T18:32:27.804Z,2.00
2023-05-17T18:34:55.104Z,2.00
2023-05-17T18:37:21.822Z,2.15
2023-05-17T18:39:48.665Z,1.88
2023-05-17T18:42:15.663Z,1.75
2023-05-17T18:44:42.395Z,1.70
2023-05-17T18:47:09.228Z,1.77
2023-05-17T18:49:36.601Z,1.90
2023-05-17T18:52:03.425Z,2.22
2023-05-17T18:54:30.296Z,1.88
2023-05-17T18:56:57.349Z,1.90
2023-05-17T18:59:24.193Z,1.73
2023-05-17T19:01:51.075Z,1.63
2023-05-17T19:04:17.862Z,2.22
2023-05-17T19:06:44.851Z,1.70
2023-05-17T19:09:11.610Z,1.60
2023-05-17T19:11:38.390Z,1.65
2023-05-17T19:14:05.918Z,1.85
2023-05-17T19:16:32.699Z,1.88
2023-05-17T19:18:59.465Z,1.20
2023-05-17T19:21:26.248Z,1.50
2023-05-17T19:23:52.946Z,1.80
2023-05-17T19:26:19.615Z,1.55
2023-05-17T19:28:46.381Z,2.00
2023-05-17T19:31:13.197Z,1.90
2023-05-17T19:33:40.164Z,1.67
2023-05-17T19:36:07.005Z,1.38
2023-05-17T19:38:33.841Z,1.20
2023-05-17T19:41:01.562Z,1.48
2023-05-17T19:43:28.459Z,1.70
2023-05-17T19:45:55.629Z,1.70
2023-05-17T19:48:24.199Z,1.45
2023-05-17T19:50:51.460Z,1.63
2023-05-17T19:53:18.326Z,1.52
2023-05-17T19:55:45.344Z,1.30
2023-05-17T19:58:12.168Z,1.65
2023-05-17T20:00:39.007Z,1.48
2023-05-17T20:03:05.960Z,1.55
2023-05-17T20:05:32.657Z,1.70
2023-05-17T20:08:02.305Z,1.23
2023-05-17T20:10:31.615Z,1.52
2023-05-17T20:12:58.622Z,1.42
2023-05-17T20:15:25.814Z,1.63
2023-05-17T20:17:52.666Z,1.73
2023-05-17T20:20:19.546Z,1.50
2023-05-17T20:22:46.424Z,1.70
2023-05-17T20:25:13.355Z,2.05
2023-05-17T20:27:40.052Z,1.73
2023-05-17T20:30:07.648Z,2.20
2023-05-17T20:32:34.356Z,1.70
2023-05-17T20:35:01.513Z,1.55
2023-05-17T20:37:28.336Z,1.48
2023-05-17T20:39:57.355Z,1.60
2023-05-17T20:42:24.056Z,1.80
2023-05-17T20:44:53.603Z,1.50
2023-05-17T20:47:21.246Z,1.65
2023-05-17T20:49:50.141Z,1.15
2023-05-17T20:52:27.581Z,1.55
2023-05-17T20:55:04.983Z,1.70
2023-05-17T20:57:31.973Z,1.77
2023-05-17T20:59:58.744Z,1.95
2023-05-17T21:02:25.593Z,1.50
2023-05-17T21:04:55.570Z,1.50
2023-05-17T21:07:26.096Z,1.65
2023-05-17T21:09:52.861Z,1.50
2023-05-17T21:12:20.323Z,1.80
2023-05-17T21:14:54.133Z,1.77
2023-05-17T21:17:27.490Z,1.60
2023-05-17T21:19:54.269Z,2.00
2023-05-17T21:22:21.169Z,1.77
2023-05-17T21:24:47.974Z,1.60
2023-05-17T21:27:14.848Z,1.40
2023-05-17T21:29:41.497Z,1.65
2023-05-17T21:32:09.339Z,1.80
2023-05-17T21:34:38.470Z,1.90
2023-05-17T21:37:05.280Z,1.70
2023-05-17T21:39:32.312Z,2.03
2023-05-17T21:41:59.045Z,2.15
2023-05-17T21:44:25.777Z,1.40
2023-05-17T21:46:52.511Z,2.40
2023-05-17T21:49:19.226Z,2.03
2023-05-17T21:51:46.017Z,1.95
2023-05-17T21:54:12.717Z,1.95
2023-05-17T21:56:39.390Z,1.90
2023-05-17T21:59:06.399Z,1.60
2023-05-17T22:01:33.071Z,1.67
2023-05-17T22:04:00.332Z,2.22
2023-05-17T22:06:27.772Z,1.98
2023-05-17T22:08:55.324Z,1.73
2023-05-17T22:11:25.999Z,1.98
2023-05-17T22:13:52.906Z,2.03
2023-05-17T22:16:23.665Z,1.60
2023-05-17T22:18:53.648Z,2.03
2023-05-17T22:21:20.594Z,1.70
2023-05-17T22:23:47.245Z,2.50
2023-05-17T22:26:13.921Z,1.95
2023-05-17T22:28:40.750Z,1.55
2023-05-17T22:31:07.583Z,1.88
2023-05-17T22:33:38.658Z,2.20
2023-05-17T22:36:06.036Z,2.08
2023-05-17T22:38:32.827Z,2.00
2023-05-17T22:40:59.571Z,2.20
2023-05-17T22:43:28.120Z,2.22
2023-05-17T22:45:59.657Z,2.10
2023-05-17T22:48:30.199Z,2.03
2023-05-17T22:50:58.835Z,1.77
2023-05-17T22:53:25.653Z,1.83
2023-05-17T22:55:55.453Z,1.40
2023-05-17T22:58:26.251Z,1.70
2023-05-17T23:00:53.474Z,2.05
2023-05-17T23:03:26.193Z,1.60
2023-05-17T23:06:02.177Z,1.80
2023-05-17T23:08:30.139Z,1.70
2023-05-17T23:10:58.295Z,1.75
2023-05-17T23:13:26.388Z,1.80
2023-05-17T23:15:54.207Z,2.05
2023-05-17T23:18:21.098Z,2.33
2023-05-17T23:20:48.883Z,1.65
2023-05-17T23:23:16.266Z,1.95
2023-05-17T23:25:44.662Z,1.80
2023-05-17T23:28:11.472Z,2.17
2023-05-17T23:30:39.879Z,2.10
2023-05-17T23:33:06.861Z,2.25
2023-05-17T23:35:34.275Z,2.20
2023-05-17T23:38:01.172Z,2.20
2023-05-17T23:40:27.892Z,1.83
2023-05-17T23:42:54.634Z,2.00
2023-05-17T23:45:21.389Z,1.90
2023-05-17T23:47:50.111Z,1.90
2023-05-17T23:50:17.016Z,2.30
2023-05-17T23:52:43.956Z,1.95
2023-05-17T23:55:12.033Z,2.58
2023-05-17T23:57:39.973Z,2.42
